Latest Weather Observations for Coober Pedy Airport

IDS60801

Issued at 4:31 pm CDT Sunday 22 October 2017 (issued every 30 minutes, with the page automatically refreshed every 10 minutes)

About weather observations | Map of weather stations | Latest weather observations for SA | Other Formats
Station Details ID: 016090 Name: COOBER PEDY AIRPORT Lat: -29.03 Lon: 134.72 Height: 225.0 m
Data from the previous 72 hours. | See also: Recent months at Coober Pedy Airport
Date/Time
CDT
Temp
°C
App
Temp
°C
Dew
Point
°C
Rel
Hum
%
Delta-T
°C
Wind Press
QNH
hPa
Press
MSL
hPa
Rain since
9am
mm
Dir  Spd
km/h
Gust
km/h
Spd
kts
Gust
kts
22/04:30pm 27.7 22.7 -4.3 12 14.0 SSW 13 28 7 15 1018.1 1017.3 0.0
22/04:00pm 27.1 22.8 -4.7 12 13.8 SSE 9 20 5 11 1018.2 1017.4 0.0
22/03:30pm 27.2 20.9 -3.6 13 13.6 S 20 30 11 16 1018.7 1017.9 0.0
22/03:00pm 27.5 21.5 -3.3 13 13.7 S 19 33 10 18 1019.1 1018.3 0.0
22/02:30pm 26.7 21.1 -3.0 14 13.2 SE 17 30 9 16 1019.6 1018.8 0.0
22/02:00pm 25.6 20.0 -2.9 15 12.6 SSW 17 28 9 15 1020.1 1019.3 0.0
22/01:30pm 25.7 20.6 -2.0 16 12.4 SE 15 26 8 14 1020.5 1019.7 0.0
22/01:00pm 24.4 19.8 -1.4 18 11.6 SSE 13 28 7 15 1021.1 1020.3 0.0
22/12:30pm 24.4 19.9 0.0 20 11.3 SSE 13 20 7 11 1021.6 1020.8 0.0
22/12:00pm 23.1 18.3 0.2 22 10.5 SSE 15 24 8 13 1022.3 1021.5 0.0
22/11:30am 23.3 18.0 1.6 24 10.2 SSE 19 26 10 14 1022.6 1021.8 0.0
22/11:00am 21.6 15.7 1.8 27 9.3 SSE 22 30 12 16 1023.0 1022.2 0.0
22/10:30am 21.2 15.7 2.0 28 9.0 SE 20 26 11 14 1022.9 1022.1 0.0
22/10:00am 19.7 14.2 1.7 30 8.3 SE 20 28 11 15 1023.0 1022.2 0.0
22/09:30am 18.1 12.4 2.8 36 7.1 SE 22 28 12 15 1023.3 1022.5 0.0
22/09:00am 17.4 11.0 3.3 39 6.6 SE 26 32 14 17 1022.9 1022.1 0.0
22/08:30am 16.2 10.4 4.3 45 5.6 SE 24 32 13 17 1022.3 1021.5 0.0
22/08:00am 15.0 9.5 3.8 47 5.2 SE 22 28 12 15 1021.8 1021.1 0.0
22/07:30am 13.7 9.3 0.4 40 5.6 SE 13 19 7 10 1021.5 1020.7 0.0
22/07:00am 13.0 7.7 -0.3 40 5.5 SE 17 22 9 12 1021.3 1020.5 0.0
22/06:30am 13.5 8.2 -0.9 37 5.9 SE 17 20 9 11 1021.1 1020.3 0.0
22/06:00am 13.5 7.6 -2.0 34 6.2 SSE 19 20 10 11 1021.0 1020.2 0.0
22/05:30am 14.2 8.7 -1.8 33 6.5 SE 17 20 9 11 1021.1 1020.3 0.0
22/05:00am 14.3 9.4 -3.0 30 6.9 SSE 13 17 7 9 1021.2 1020.4 0.0
22/04:30am 14.5 9.6 -3.8 28 7.1 SSE 13 15 7 8 1021.1 1020.3 0.0
22/04:00am 15.5 9.7 -5.0 24 7.9 SSE 17 20 9 11 1021.1 1020.3 0.0
22/03:30am 15.8 11.2 -4.2 25 7.8 SE 11 13 6 7 1020.9 1020.1 0.0
22/03:00am 15.8 10.8 -4.2 25 7.8 SE 13 15 7 8 1021.3 1020.5 0.0
22/02:30am 16.4 11.1 -3.7 25 8.0 SE 15 17 8 9 1021.3 1020.5 0.0
22/02:00am 16.4 11.8 -4.2 24 8.2 SE 11 13 6 7 1021.5 1020.7 0.0
22/01:30am 17.7 12.0 -3.7 23 8.6 SE 17 19 9 10 1021.9 1021.2 0.0
22/01:00am 18.3 12.6 -3.8 22 9.0 SSE 17 20 9 11 1022.3 1021.5 0.0
22/12:30am 18.7 12.8 -2.3 24 8.8 SSE 19 20 10 11 1022.5 1021.7 0.0
22/12:00am 19.1 13.7 -1.4 25 8.8 SSE 17 19 9 10 1022.6 1021.8 0.0
 
Date/Time
CDT
Temp
°C
App
Temp
°C
Dew
Point
°C
Rel
Hum
%
Delta-T
°C
Wind Press
QNH
hPa
Press
MSL
hPa
Rain since
9am
mm
Dir  Spd
km/h
Gust
km/h
Spd
kts
Gust
kts
21/11:30pm 19.6 14.6 -0.9 25 8.9 SSE 15 17 8 9 1022.8 1022.0 0.0
21/11:00pm 20.7 15.3 -1.1 23 9.6 SSE 17 20 9 11 1022.8 1022.0 0.0
21/10:30pm 21.0 15.5 -2.1 21 9.9 S 17 20 9 11 1023.0 1022.2 0.0
21/10:00pm 22.1 16.2 -2.6 19 10.7 SSE 19 20 10 11 1022.9 1022.1 0.0
21/09:30pm 22.6 17.1 -2.2 19 10.8 SSE 17 19 9 10 1022.8 1022.0 0.0
21/09:00pm 23.4 17.5 -2.2 18 11.2 S 19 20 10 11 1022.6 1021.8 0.0
21/08:30pm 24.2 18.3 -2.4 17 11.7 S 19 24 10 13 1022.3 1021.5 0.0
21/08:00pm 25.2 18.6 -3.2 15 12.5 SSE 22 28 12 15 1022.1 1021.3 0.0
21/07:30pm 25.9 19.0 -2.7 15 12.7 SSE 24 32 13 17 1021.9 1021.2 0.0
21/07:00pm 26.5 19.5 -3.1 14 13.2 S 24 32 13 17 1021.9 1021.2 0.0
21/06:30pm 26.9 20.4 -2.8 14 13.3 SSE 22 33 12 18 1021.9 1021.2 0.0
21/06:00pm 27.3 21.7 -2.5 14 13.4 S 17 26 9 14 1022.1 1021.3 0.0
21/05:30pm 27.7 21.8 -2.2 14 13.6 S 19 33 10 18 1022.2 1021.4 0.0
21/05:00pm 27.0 21.8 -2.7 14 13.4 S 15 24 8 13 1022.3 1021.5 0.0
21/04:30pm 27.8 22.3 -2.1 14 13.6 SE 17 33 9 18 1022.5 1021.7 0.0
21/04:00pm 27.3 21.7 -2.5 14 13.5 SSE 17 28 9 15 1022.9 1022.1 0.0
21/03:30pm 27.6 21.8 -1.3 15 13.3 SSE 19 28 10 15 1023.3 1022.5 0.0
21/03:00pm 25.9 20.4 -1.8 16 12.5 SSE 17 32 9 17 1023.7 1022.9 0.0
21/02:30pm 25.2 20.1 -1.6 17 12.1 S 15 32 8 17 1024.3 1023.5 0.0
21/02:00pm 25.3 19.9 -1.5 17 12.2 SSE 17 28 9 15 1024.8 1024.0 0.0
21/01:30pm 24.0 19.5 -0.3 20 11.1 SSE 13 28 7 15 1025.1 1024.3 0.0
21/01:00pm 24.0 20.0 0.4 21 11.0 SE 11 19 6 10 1025.5 1024.7 0.0
21/12:30pm 23.5 19.1 0.6 22 10.6 ESE 13 24 7 13 1025.8 1025.1 0.0
21/12:00pm 22.4 16.9 0.9 24 9.9 E 19 24 10 13 1026.2 1025.5 0.0
21/11:30am 22.2 16.6 1.3 25 9.7 E 20 28 11 15 1026.6 1025.9 0.0
21/11:00am 21.0 15.6 2.3 29 8.8 E 20 28 11 15 1027.3 1026.5 0.0
21/10:30am 20.8 15.1 2.6 30 8.6 ESE 22 35 12 19 1027.5 1026.7 0.0
21/10:00am 19.1 13.4 2.9 34 7.6 SE 22 32 12 17 1027.5 1026.7 0.0
21/09:30am 17.9 12.0 3.8 39 6.6 SE 24 30 13 16 1027.3 1026.5 0.0
21/09:00am 16.7 10.9 4.4 44 5.8 SE 24 35 13 19 1027.2 1026.4 0.0
21/08:30am 15.2 9.1 4.9 50 4.9 SE 26 33 14 18 1027.0 1026.2 0.0
21/08:00am 14.2 8.5 5.0 54 4.3 SE 24 33 13 18 1026.6 1025.9 0.0
21/07:30am 13.2 8.1 4.1 54 4.2 SE 20 26 11 14 1026.5 1025.8 0.0
21/07:00am 12.8 7.6 3.5 53 4.2 SE 20 26 11 14 1026.0 1025.3 0.0
21/06:30am 13.1 7.8 3.2 51 4.4 SSE 20 28 11 15 1025.8 1025.1 0.0
21/06:00am 13.3 8.1 2.5 48 4.8 SSE 19 22 10 12 1025.8 1025.1 0.0
21/05:30am 13.8 9.0 2.7 47 4.9 SSE 17 20 9 11 1025.9 1025.2 0.0
21/05:00am 14.2 9.0 2.5 45 5.2 SSE 19 24 10 13 1025.8 1025.1 0.0
21/04:30am 14.7 9.8 2.3 43 5.5 SSE 17 24 9 13 1025.8 1025.1 0.0
21/04:00am 15.1 9.6 2.0 41 5.9 SE 20 28 11 15 1025.6 1024.9 0.0
21/03:30am 15.3 9.9 1.4 39 6.1 SE 19 22 10 12 1025.3 1024.5 0.0
21/03:00am 15.8 10.8 1.5 38 6.3 SE 17 22 9 12 1025.8 1025.1 0.0
21/02:30am 16.8 11.9 1.7 36 6.8 SE 17 22 9 12 1026.2 1025.5 0.0
21/02:00am 17.2 11.9 1.6 35 7.0 SE 19 20 10 11 1026.3 1025.6 0.0
21/01:30am 17.7 12.8 1.7 34 7.2 SE 17 20 9 11 1026.6 1025.9 0.0
21/01:00am 18.3 13.0 1.8 33 7.5 SSE 19 20 10 11 1026.6 1025.9 0.0
21/12:30am 18.6 13.3 1.6 32 7.7 SSE 19 24 10 13 1026.9 1026.1 0.0
21/12:00am 19.3 13.5 2.2 32 7.9 SSE 22 28 12 15 1027.0 1026.2 0.0
 
Date/Time
CDT
Temp
°C
App
Temp
°C
Dew
Point
°C
Rel
Hum
%
Delta-T
°C
Wind Press
QNH
hPa
Press
MSL
hPa
Rain since
9am
mm
Dir  Spd
km/h
Gust
km/h
Spd
kts
Gust
kts
20/11:30pm 19.5 14.1 2.4 32 7.9 SSE 20 26 11 14 1027.1 1026.3 0.0
20/11:00pm 19.8 14.4 2.2 31 8.2 SSE 20 24 11 13 1027.1 1026.3 0.0
20/10:30pm 20.3 14.1 2.2 30 8.4 SSE 24 28 13 15 1027.1 1026.3 0.0
20/10:00pm 20.7 14.5 2.0 29 8.7 S 24 32 13 17 1026.9 1026.1 0.0
20/09:30pm 21.2 14.5 1.5 27 9.1 SSE 26 32 14 17 1026.5 1025.8 0.0
20/09:00pm 21.8 15.5 1.5 26 9.4 S 24 30 13 16 1026.2 1025.5 0.0
20/08:30pm 22.5 15.8 1.5 25 9.8 S 26 37 14 20 1025.8 1025.1 0.0
20/08:00pm 23.1 15.6 1.5 24 10.2 S 30 37 16 20 1025.5 1024.7 0.0
20/07:30pm 24.2 16.6 0.5 21 11.0 SSE 30 37 16 20 1025.1 1024.3 0.0
20/07:00pm 25.1 17.8 -0.1 19 11.7 SSE 28 33 15 18 1024.7 1023.9 0.0
20/06:30pm 25.9 18.6 -0.2 18 12.1 SSE 28 41 15 22 1024.4 1023.6 0.0
20/06:00pm 25.9 18.3 0.5 19 12.0 SSE 30 46 16 25 1024.2 1023.4 0.0
20/05:30pm 26.0 19.1 -0.1 18 12.2 SSE 26 41 14 22 1024.4 1023.6 0.0
20/05:00pm 26.2 18.9 0.0 18 12.3 SSE 28 43 15 23 1024.5 1023.7 0.0
20/04:30pm 26.8 19.6 0.5 18 12.5 SSE 28 39 15 21 1024.7 1023.9 0.0
20/04:00pm 25.6 18.3 0.3 19 11.9 SSE 28 43 15 23 1025.0 1024.2 0.0
20/03:30pm 25.8 18.5 -0.3 18 12.1 SSE 28 39 15 21 1025.2 1024.4 0.0
20/03:19pm 26.1 18.7 -0.8 17 12.4 SSE 28 46 15 25 1025.3 1024.5 0.0
20/03:00pm 25.4 17.1 -1.4 17 12.1 SSE 32 43 17 23 1025.7 1025.0 0.0
20/02:30pm 25.2 17.1 0.0 19 11.7 SSE 32 43 17 23 1026.1 1025.4 0.0
20/02:12pm 24.8 17.5 0.3 20 11.4 SSE 28 54 15 29 1026.2 1025.5 0.0
20/02:00pm 24.3 17.1 0.6 21 11.1 SSE 28 39 15 21 1026.5 1025.8 0.0
20/01:30pm 23.7 16.5 0.7 22 10.7 SE 28 44 15 24 1027.1 1026.3 0.0
20/01:00pm 23.2 15.4 1.5 24 10.2 SSE 32 43 17 23 1027.5 1026.7 0.0
20/12:30pm 21.8 15.6 2.0 27 9.3 SSE 24 39 13 21 1028.0 1027.2 0.0
20/12:00pm 20.8 14.3 2.6 30 8.6 SE 26 39 14 21 1028.4 1027.6 0.0
20/11:30am 20.0 12.9 3.7 34 7.8 SSE 30 41 16 22 1028.6 1027.8 0.0
20/11:00am 19.1 12.4 3.7 36 7.4 SSE 28 37 15 20 1028.9 1028.1 0.0
20/10:30am 17.9 10.4 4.5 41 6.4 SSE 33 46 18 25 1028.8 1028.0 0.0
20/10:00am 17.2 10.1 5.5 46 5.7 SSE 32 43 17 23 1028.7 1027.9 0.0
20/09:30am 16.3 9.0 5.6 49 5.2 SSE 33 43 18 23 1028.9 1028.1 0.0
20/09:00am 15.1 7.1 5.9 54 4.4 SE 37 46 20 25 1028.4 1027.6 0.0
20/08:30am 14.6 6.3 5.9 56 4.2 SSE 39 50 21 27 1028.2 1027.4 0.0
20/08:00am 14.4 7.1 7.0 61 3.7 SSE 35 43 19 23 1028.1 1027.3 0.0
20/07:30am 14.1 7.3 6.9 62 3.5 SSE 32 41 17 22 1027.9 1027.1 0.0
20/07:00am 14.0 7.5 6.6 61 3.6 SSE 30 39 16 21 1027.5 1026.7 0.0
20/06:30am 14.2 7.3 6.3 59 3.8 SSE 32 39 17 21 1027.1 1026.3 0.0
20/06:00am 14.5 7.4 5.6 55 4.2 SSE 32 43 17 23 1026.6 1025.9 0.0
20/05:30am 14.7 7.0 5.2 53 4.5 SSE 35 43 19 23 1025.8 1025.1 0.0
20/05:00am 15.1 7.8 5.3 52 4.7 SSE 33 44 18 24 1025.5 1024.7 0.0
20/04:30am 15.3 6.8 5.2 51 4.8 SSE 39 46 21 25 1025.0 1024.2 0.0
20/04:00am 15.6 7.1 5.2 50 5.0 S 39 48 21 26 1024.9 1024.1 0.0
20/03:30am 16.3 7.4 5.0 47 5.4 S 41 54 22 29 1024.6 1023.8 0.0
20/03:00am 16.8 8.3 5.1 46 5.6 S 39 50 21 27 1024.4 1023.6 0.0
20/02:30am 17.5 8.5 4.8 43 6.1 S 41 48 22 26 1024.3 1023.5 0.0
20/02:00am 17.8 9.7 5.4 44 6.1 S 37 56 20 30 1024.6 1023.8 0.0
20/01:56am 18.1 9.9 4.7 41 6.5 S 37 56 20 30 1024.5 1023.7 0.0
20/01:30am 18.6 9.7 5.1 41 6.6 S 41 48 22 26 1024.4 1023.6 0.0
20/01:00am 19.2 9.7 4.9 39 7.0 S 44 52 24 28 1024.3 1023.5 0.0
20/12:30am 19.7 10.9 5.4 39 7.1 S 41 50 22 27 1024.4 1023.6 0.0
20/12:00am 20.7 11.9 5.5 37 7.6 S 41 50 22 27 1024.3 1023.5 0.0
 
Date/Time
CDT
Temp
°C
App
Temp
°C
Dew
Point
°C
Rel
Hum
%
Delta-T
°C
Wind Press
QNH
hPa
Press
MSL
hPa
Rain since
9am
mm
Dir  Spd
km/h
Gust
km/h
Spd
kts
Gust
kts
19/11:30pm 22.0 14.3 5.4 34 8.3 S 35 48 19 26 1024.0 1023.2 0.0
19/11:00pm 21.9 15.3 7.7 40 7.5 S 32 39 17 21 1023.9 1023.1 0.0
19/10:30pm 22.1 15.5 7.9 40 7.5 S 32 41 17 22 1023.9 1023.1 0.0
19/10:00pm 22.2 15.0 7.6 39 7.7 S 35 44 19 24 1023.8 1023.0 0.0
19/09:30pm 22.2 15.3 9.0 43 7.1 S 35 46 19 25 1023.5 1022.7 0.0
19/09:00pm 22.2 15.1 9.4 44 6.9 S 37 44 20 24 1023.1 1022.3 0.0
19/08:30pm 22.5 15.4 7.9 39 7.7 S 35 46 19 25 1022.8 1022.0 0.0
19/08:00pm 23.2 15.6 8.9 40 7.7 S 39 46 21 25 1022.3 1021.5 0.0
19/07:30pm 24.2 16.5 8.6 37 8.4 S 39 48 21 26 1021.7 1021.0 0.0
19/07:00pm 25.1 17.2 9.4 37 8.7 S 41 50 22 27 1021.2 1020.4 0.0
19/06:30pm 26.3 17.9 8.8 33 9.6 S 43 52 23 28 1020.7 1019.9 0.0
19/06:00pm 27.2 19.5 10.0 34 9.7 S 41 54 22 29 1020.3 1019.5 0.0
19/05:30pm 27.9 21.1 10.6 34 9.8 S 37 48 20 26 1020.0 1019.2 0.0
19/05:00pm 29.0 21.4 10.6 32 10.6 S 41 52 22 28 1019.7 1018.9 0.0
19/04:42pm 30.1 22.8 10.1 29 11.4 S 39 50 21 27 1019.4 1018.6 0.0
19/04:39pm 29.6 22.7 10.2 30 11.1 S 37 48 20 26 1019.3 1018.5 0.0

Other Formats:

Comma delimited format used in spreadsheet applications
http://www.bom.gov.au/fwo/IDS60801/IDS60801.95458.axf

JavaScript Object Notation format (JSON) in row-major order
http://www.bom.gov.au/fwo/IDS60801/IDS60801.95458.json